sensor_id;sensor_type;location;lat;lon;timestamp;P1;durP1;ratioP1;P2;durP2;ratioP2
73456;SDS011;61691;53.072;6.582;2023-02-23T00:01:52;43.20;;;27.08;;
73456;SDS011;61691;53.072;6.582;2023-02-23T00:04:20;44.63;;;27.52;;
73456;SDS011;61691;53.072;6.582;2023-02-23T00:06:47;47.45;;;29.10;;
73456;SDS011;61691;53.072;6.582;2023-02-23T00:09:13;46.10;;;27.65;;
73456;SDS011;61691;53.072;6.582;2023-02-23T00:11:51;48.25;;;29.10;;
73456;SDS011;61691;53.072;6.582;2023-02-23T00:14:20;44.97;;;28.38;;
73456;SDS011;61691;53.072;6.582;2023-02-23T00:16:49;44.75;;;26.73;;
73456;SDS011;61691;53.072;6.582;2023-02-23T00:19:16;52.38;;;29.63;;
73456;SDS011;61691;53.072;6.582;2023-02-23T00:21:43;49.65;;;30.30;;
73456;SDS011;61691;53.072;6.582;2023-02-23T00:24:11;48.55;;;30.45;;
73456;SDS011;61691;53.072;6.582;2023-02-23T00:26:41;45.38;;;29.15;;
73456;SDS011;61691;53.072;6.582;2023-02-23T00:29:10;49.78;;;29.33;;
73456;SDS011;61691;53.072;6.582;2023-02-23T00:31:45;48.05;;;29.23;;
73456;SDS011;61691;53.072;6.582;2023-02-23T00:34:13;50.03;;;30.10;;
73456;SDS011;61691;53.072;6.582;2023-02-23T00:36:42;51.70;;;30.33;;
73456;SDS011;61691;53.072;6.582;2023-02-23T00:39:10;50.72;;;30.95;;
73456;SDS011;61691;53.072;6.582;2023-02-23T00:41:55;53.22;;;31.48;;
73456;SDS011;61691;53.072;6.582;2023-02-23T00:44:22;54.70;;;31.92;;
73456;SDS011;61691;53.072;6.582;2023-02-23T00:46:50;57.17;;;33.95;;
73456;SDS011;61691;53.072;6.582;2023-02-23T00:49:19;56.53;;;34.22;;
73456;SDS011;61691;53.072;6.582;2023-02-23T00:51:47;59.15;;;34.22;;
73456;SDS011;61691;53.072;6.582;2023-02-23T00:54:14;58.65;;;34.22;;
73456;SDS011;61691;53.072;6.582;2023-02-23T00:56:42;59.50;;;34.92;;
73456;SDS011;61691;53.072;6.582;2023-02-23T00:59:10;61.85;;;35.35;;
73456;SDS011;61691;53.072;6.582;2023-02-23T01:01:38;60.67;;;34.40;;
73456;SDS011;61691;53.072;6.582;2023-02-23T01:04:07;67.03;;;36.50;;
73456;SDS011;61691;53.072;6.582;2023-02-23T01:06:35;62.50;;;34.90;;
73456;SDS011;61691;53.072;6.582;2023-02-23T01:09:08;62.53;;;34.83;;
73456;SDS011;61691;53.072;6.582;2023-02-23T01:11:41;60.72;;;34.70;;
73456;SDS011;61691;53.072;6.582;2023-02-23T01:14:12;64.13;;;35.17;;
73456;SDS011;61691;53.072;6.582;2023-02-23T01:16:39;60.63;;;34.05;;
73456;SDS011;61691;53.072;6.582;2023-02-23T01:19:06;65.10;;;36.03;;
73456;SDS011;61691;53.072;6.582;2023-02-23T01:21:33;61.72;;;34.90;;
73456;SDS011;61691;53.072;6.582;2023-02-23T01:24:02;71.18;;;37.83;;
73456;SDS011;61691;53.072;6.582;2023-02-23T01:26:30;68.53;;;36.30;;
73456;SDS011;61691;53.072;6.582;2023-02-23T01:29:04;63.70;;;35.85;;
73456;SDS011;61691;53.072;6.582;2023-02-23T01:31:35;70.38;;;37.22;;
73456;SDS011;61691;53.072;6.582;2023-02-23T01:34:03;62.50;;;34.85;;
73456;SDS011;61691;53.072;6.582;2023-02-23T01:36:32;64.15;;;35.45;;
73456;SDS011;61691;53.072;6.582;2023-02-23T01:39:02;66.15;;;36.17;;
73456;SDS011;61691;53.072;6.582;2023-02-23T01:41:32;60.60;;;35.75;;
73456;SDS011;61691;53.072;6.582;2023-02-23T01:44:03;66.95;;;37.05;;
73456;SDS011;61691;53.072;6.582;2023-02-23T01:46:33;64.70;;;35.53;;
73456;SDS011;61691;53.072;6.582;2023-02-23T01:49:02;66.22;;;35.67;;
73456;SDS011;61691;53.072;6.582;2023-02-23T01:51:30;65.05;;;36.63;;
73456;SDS011;61691;53.072;6.582;2023-02-23T01:56:43;64.00;;;35.47;;
73456;SDS011;61691;53.072;6.582;2023-02-23T01:59:14;69.72;;;35.20;;
73456;SDS011;61691;53.072;6.582;2023-02-23T02:01:43;59.75;;;34.85;;
73456;SDS011;61691;53.072;6.582;2023-02-23T02:04:10;66.22;;;37.50;;
73456;SDS011;61691;53.072;6.582;2023-02-23T02:06:43;68.03;;;35.90;;
73456;SDS011;61691;53.072;6.582;2023-02-23T02:09:13;71.82;;;36.05;;
73456;SDS011;61691;53.072;6.582;2023-02-23T02:11:43;61.95;;;34.35;;
73456;SDS011;61691;53.072;6.582;2023-02-23T02:14:16;65.88;;;36.50;;
73456;SDS011;61691;53.072;6.582;2023-02-23T02:40:02;64.55;;;35.97;;
73456;SDS011;61691;53.072;6.582;2023-02-23T02:42:55;65.75;;;36.10;;
73456;SDS011;61691;53.072;6.582;2023-02-23T02:48:27;63.80;;;36.50;;
73456;SDS011;61691;53.072;6.582;2023-02-23T02:54:25;69.07;;;36.08;;
73456;SDS011;61691;53.072;6.582;2023-02-23T02:56:59;65.15;;;37.17;;
73456;SDS011;61691;53.072;6.582;2023-02-23T02:59:29;63.00;;;35.72;;
73456;SDS011;61691;53.072;6.582;2023-02-23T03:02:16;61.78;;;35.38;;
73456;SDS011;61691;53.072;6.582;2023-02-23T03:05:11;66.22;;;37.10;;
73456;SDS011;61691;53.072;6.582;2023-02-23T03:11:14;68.85;;;35.65;;
73456;SDS011;61691;53.072;6.582;2023-02-23T03:17:32;62.78;;;35.15;;
73456;SDS011;61691;53.072;6.582;2023-02-23T03:21:17;66.35;;;35.67;;
73456;SDS011;61691;53.072;6.582;2023-02-23T03:23:53;65.75;;;37.03;;
73456;SDS011;61691;53.072;6.582;2023-02-23T03:26:52;65.70;;;34.58;;
73456;SDS011;61691;53.072;6.582;2023-02-23T03:29:48;65.40;;;37.15;;
73456;SDS011;61691;53.072;6.582;2023-02-23T03:32:46;69.05;;;36.95;;
73456;SDS011;61691;53.072;6.582;2023-02-23T03:35:49;64.63;;;35.90;;
73456;SDS011;61691;53.072;6.582;2023-02-23T03:38:41;67.65;;;37.08;;
73456;SDS011;61691;53.072;6.582;2023-02-23T03:41:33;64.97;;;36.50;;
73456;SDS011;61691;53.072;6.582;2023-02-23T03:44:26;66.22;;;34.78;;
73456;SDS011;61691;53.072;6.582;2023-02-23T03:47:17;62.75;;;34.55;;
73456;SDS011;61691;53.072;6.582;2023-02-23T03:50:25;67.28;;;36.22;;
73456;SDS011;61691;53.072;6.582;2023-02-23T03:53:17;64.53;;;35.40;;
73456;SDS011;61691;53.072;6.582;2023-02-23T03:56:11;61.00;;;34.03;;
73456;SDS011;61691;53.072;6.582;2023-02-23T03:59:00;62.30;;;34.85;;
73456;SDS011;61691;53.072;6.582;2023-02-23T04:01:50;66.50;;;35.78;;
73456;SDS011;61691;53.072;6.582;2023-02-23T04:04:39;62.75;;;34.83;;
73456;SDS011;61691;53.072;6.582;2023-02-23T04:07:27;63.05;;;36.17;;
73456;SDS011;61691;53.072;6.582;2023-02-23T04:10:13;59.45;;;35.85;;
73456;SDS011;61691;53.072;6.582;2023-02-23T04:13:10;65.82;;;35.92;;
73456;SDS011;61691;53.072;6.582;2023-02-23T04:18:25;63.40;;;34.95;;
73456;SDS011;61691;53.072;6.582;2023-02-23T04:20:54;64.43;;;35.63;;
73456;SDS011;61691;53.072;6.582;2023-02-23T04:23:22;62.00;;;34.05;;
73456;SDS011;61691;53.072;6.582;2023-02-23T04:25:50;63.38;;;33.17;;
73456;SDS011;61691;53.072;6.582;2023-02-23T04:28:18;64.93;;;35.67;;
73456;SDS011;61691;53.072;6.582;2023-02-23T04:30:49;61.85;;;34.42;;
73456;SDS011;61691;53.072;6.582;2023-02-23T04:33:18;63.95;;;35.15;;
73456;SDS011;61691;53.072;6.582;2023-02-23T04:35:47;59.28;;;33.78;;
73456;SDS011;61691;53.072;6.582;2023-02-23T04:38:14;64.00;;;35.75;;
73456;SDS011;61691;53.072;6.582;2023-02-23T04:40:41;63.40;;;34.53;;
73456;SDS011;61691;53.072;6.582;2023-02-23T04:43:09;65.05;;;35.28;;
73456;SDS011;61691;53.072;6.582;2023-02-23T04:45:37;66.10;;;35.17;;
73456;SDS011;61691;53.072;6.582;2023-02-23T04:48:04;66.30;;;36.10;;
73456;SDS011;61691;53.072;6.582;2023-02-23T04:50:31;67.68;;;35.97;;
73456;SDS011;61691;53.072;6.582;2023-02-23T04:52:58;60.60;;;34.33;;
73456;SDS011;61691;53.072;6.582;2023-02-23T04:55:25;59.90;;;34.55;;
73456;SDS011;61691;53.072;6.582;2023-02-23T04:57:56;68.07;;;35.92;;
73456;SDS011;61691;53.072;6.582;2023-02-23T05:00:24;63.78;;;35.33;;
73456;SDS011;61691;53.072;6.582;2023-02-23T05:02:52;61.25;;;34.42;;
73456;SDS011;61691;53.072;6.582;2023-02-23T05:05:19;63.92;;;34.72;;
73456;SDS011;61691;53.072;6.582;2023-02-23T05:07:46;63.30;;;34.13;;
73456;SDS011;61691;53.072;6.582;2023-02-23T05:10:13;64.80;;;34.55;;
73456;SDS011;61691;53.072;6.582;2023-02-23T05:12:40;63.70;;;34.40;;
73456;SDS011;61691;53.072;6.582;2023-02-23T05:15:07;64.93;;;33.83;;
73456;SDS011;61691;53.072;6.582;2023-02-23T05:17:37;61.92;;;33.97;;
73456;SDS011;61691;53.072;6.582;2023-02-23T05:20:07;57.35;;;32.78;;
73456;SDS011;61691;53.072;6.582;2023-02-23T05:22:36;61.83;;;33.38;;
73456;SDS011;61691;53.072;6.582;2023-02-23T05:25:03;59.95;;;33.00;;
73456;SDS011;61691;53.072;6.582;2023-02-23T05:27:31;61.08;;;32.90;;
73456;SDS011;61691;53.072;6.582;2023-02-23T05:29:59;63.03;;;32.35;;
73456;SDS011;61691;53.072;6.582;2023-02-23T05:32:27;61.45;;;32.55;;
73456;SDS011;61691;53.072;6.582;2023-02-23T05:34:55;57.00;;;30.85;;
73456;SDS011;61691;53.072;6.582;2023-02-23T05:37:21;57.00;;;30.67;;
73456;SDS011;61691;53.072;6.582;2023-02-23T05:39:49;56.17;;;30.00;;
73456;SDS011;61691;53.072;6.582;2023-02-23T05:42:15;55.10;;;30.23;;
73456;SDS011;61691;53.072;6.582;2023-02-23T05:44:42;53.28;;;29.33;;
73456;SDS011;61691;53.072;6.582;2023-02-23T05:47:09;51.95;;;28.40;;
73456;SDS011;61691;53.072;6.582;2023-02-23T05:49:36;52.75;;;28.15;;
73456;SDS011;61691;53.072;6.582;2023-02-23T05:52:03;53.40;;;28.58;;
73456;SDS011;61691;53.072;6.582;2023-02-23T05:54:31;54.38;;;28.40;;
73456;SDS011;61691;53.072;6.582;2023-02-23T05:56:57;49.90;;;27.75;;
73456;SDS011;61691;53.072;6.582;2023-02-23T05:59:27;48.88;;;26.38;;
73456;SDS011;61691;53.072;6.582;2023-02-23T06:01:54;51.88;;;27.17;;
73456;SDS011;61691;53.072;6.582;2023-02-23T06:04:20;49.47;;;26.30;;
73456;SDS011;61691;53.072;6.582;2023-02-23T06:06:48;49.65;;;26.85;;
73456;SDS011;61691;53.072;6.582;2023-02-23T06:09:15;47.47;;;26.42;;
73456;SDS011;61691;53.072;6.582;2023-02-23T06:11:42;48.90;;;27.05;;
73456;SDS011;61691;53.072;6.582;2023-02-23T06:14:09;46.28;;;24.50;;
73456;SDS011;61691;53.072;6.582;2023-02-23T06:16:36;44.58;;;24.25;;
73456;SDS011;61691;53.072;6.582;2023-02-23T06:19:04;46.38;;;24.15;;
73456;SDS011;61691;53.072;6.582;2023-02-23T06:21:31;46.35;;;24.08;;
73456;SDS011;61691;53.072;6.582;2023-02-23T06:23:59;45.70;;;24.23;;
73456;SDS011;61691;53.072;6.582;2023-02-23T06:26:26;43.65;;;23.90;;
73456;SDS011;61691;53.072;6.582;2023-02-23T06:28:53;43.35;;;23.58;;
73456;SDS011;61691;53.072;6.582;2023-02-23T06:31:20;44.67;;;23.35;;
73456;SDS011;61691;53.072;6.582;2023-02-23T06:33:48;43.88;;;24.13;;
73456;SDS011;61691;53.072;6.582;2023-02-23T06:36:14;41.08;;;22.95;;
73456;SDS011;61691;53.072;6.582;2023-02-23T06:38:41;42.90;;;22.25;;
73456;SDS011;61691;53.072;6.582;2023-02-23T06:41:10;41.65;;;23.38;;
73456;SDS011;61691;53.072;6.582;2023-02-23T06:43:38;45.42;;;24.08;;
73456;SDS011;61691;53.072;6.582;2023-02-23T06:46:05;45.22;;;23.50;;
73456;SDS011;61691;53.072;6.582;2023-02-23T06:48:32;43.55;;;22.05;;
73456;SDS011;61691;53.072;6.582;2023-02-23T06:50:59;39.92;;;21.15;;
73456;SDS011;61691;53.072;6.582;2023-02-23T06:53:26;39.75;;;21.05;;
73456;SDS011;61691;53.072;6.582;2023-02-23T06:55:53;39.13;;;20.92;;
73456;SDS011;61691;53.072;6.582;2023-02-23T06:58:20;38.67;;;21.55;;
73456;SDS011;61691;53.072;6.582;2023-02-23T07:00:46;37.05;;;21.50;;
73456;SDS011;61691;53.072;6.582;2023-02-23T07:03:13;36.70;;;19.80;;
73456;SDS011;61691;53.072;6.582;2023-02-23T07:05:40;35.75;;;20.13;;
73456;SDS011;61691;53.072;6.582;2023-02-23T07:08:07;36.17;;;20.13;;
73456;SDS011;61691;53.072;6.582;2023-02-23T07:10:33;37.38;;;20.92;;
73456;SDS011;61691;53.072;6.582;2023-02-23T07:13:00;38.22;;;19.92;;
73456;SDS011;61691;53.072;6.582;2023-02-23T07:15:27;37.25;;;20.30;;
73456;SDS011;61691;53.072;6.582;2023-02-23T07:17:54;33.15;;;18.23;;
73456;SDS011;61691;53.072;6.582;2023-02-23T07:20:22;36.10;;;19.70;;
73456;SDS011;61691;53.072;6.582;2023-02-23T07:22:49;38.35;;;19.90;;
73456;SDS011;61691;53.072;6.582;2023-02-23T07:25:16;35.42;;;18.50;;
73456;SDS011;61691;53.072;6.582;2023-02-23T07:27:43;37.80;;;19.77;;
73456;SDS011;61691;53.072;6.582;2023-02-23T07:30:10;37.85;;;20.02;;
73456;SDS011;61691;53.072;6.582;2023-02-23T07:32:38;33.58;;;18.42;;
73456;SDS011;61691;53.072;6.582;2023-02-23T07:35:05;36.75;;;20.25;;
73456;SDS011;61691;53.072;6.582;2023-02-23T07:37:32;33.55;;;18.80;;
73456;SDS011;61691;53.072;6.582;2023-02-23T07:39:59;33.95;;;19.13;;
73456;SDS011;61691;53.072;6.582;2023-02-23T07:42:26;36.35;;;18.88;;
73456;SDS011;61691;53.072;6.582;2023-02-23T07:44:53;37.17;;;20.42;;
73456;SDS011;61691;53.072;6.582;2023-02-23T07:47:21;35.17;;;18.67;;
73456;SDS011;61691;53.072;6.582;2023-02-23T07:49:56;37.65;;;19.90;;
73456;SDS011;61691;53.072;6.582;2023-02-23T07:52:24;38.65;;;19.95;;
73456;SDS011;61691;53.072;6.582;2023-02-23T07:54:51;38.00;;;20.20;;
73456;SDS011;61691;53.072;6.582;2023-02-23T07:57:18;38.63;;;21.08;;
73456;SDS011;61691;53.072;6.582;2023-02-23T07:59:48;37.35;;;21.38;;
73456;SDS011;61691;53.072;6.582;2023-02-23T08:02:15;35.63;;;20.40;;
73456;SDS011;61691;53.072;6.582;2023-02-23T08:04:42;39.58;;;20.75;;
73456;SDS011;61691;53.072;6.582;2023-02-23T08:07:09;35.50;;;19.38;;
73456;SDS011;61691;53.072;6.582;2023-02-23T08:09:36;37.13;;;19.73;;
73456;SDS011;61691;53.072;6.582;2023-02-23T08:12:03;38.15;;;21.13;;
73456;SDS011;61691;53.072;6.582;2023-02-23T08:14:30;38.50;;;19.15;;
73456;SDS011;61691;53.072;6.582;2023-02-23T08:16:57;38.35;;;20.33;;
73456;SDS011;61691;53.072;6.582;2023-02-23T08:19:27;34.15;;;19.05;;
73456;SDS011;61691;53.072;6.582;2023-02-23T08:21:55;34.05;;;18.65;;
73456;SDS011;61691;53.072;6.582;2023-02-23T08:24:23;36.17;;;19.67;;
73456;SDS011;61691;53.072;6.582;2023-02-23T08:26:50;36.83;;;18.83;;
73456;SDS011;61691;53.072;6.582;2023-02-23T08:29:17;33.65;;;18.60;;
73456;SDS011;61691;53.072;6.582;2023-02-23T08:31:44;35.38;;;19.60;;
73456;SDS011;61691;53.072;6.582;2023-02-23T08:34:11;34.00;;;18.80;;
73456;SDS011;61691;53.072;6.582;2023-02-23T08:36:38;37.65;;;19.30;;
73456;SDS011;61691;53.072;6.582;2023-02-23T08:39:06;34.75;;;18.38;;
73456;SDS011;61691;53.072;6.582;2023-02-23T08:41:33;36.63;;;19.60;;
73456;SDS011;61691;53.072;6.582;2023-02-23T08:44:00;35.97;;;19.05;;
73456;SDS011;61691;53.072;6.582;2023-02-23T08:46:26;34.60;;;18.83;;
73456;SDS011;61691;53.072;6.582;2023-02-23T08:48:54;35.95;;;19.02;;
73456;SDS011;61691;53.072;6.582;2023-02-23T08:51:22;36.05;;;19.13;;
73456;SDS011;61691;53.072;6.582;2023-02-23T08:53:49;37.20;;;19.23;;
73456;SDS011;61691;53.072;6.582;2023-02-23T08:56:16;35.00;;;17.88;;
73456;SDS011;61691;53.072;6.582;2023-02-23T08:58:43;35.78;;;18.85;;
73456;SDS011;61691;53.072;6.582;2023-02-23T09:01:16;35.90;;;18.95;;
73456;SDS011;61691;53.072;6.582;2023-02-23T09:03:45;37.55;;;18.98;;
73456;SDS011;61691;53.072;6.582;2023-02-23T09:06:15;37.60;;;20.25;;
73456;SDS011;61691;53.072;6.582;2023-02-23T09:08:44;39.50;;;20.85;;
73456;SDS011;61691;53.072;6.582;2023-02-23T09:11:11;34.40;;;17.90;;
73456;SDS011;61691;53.072;6.582;2023-02-23T09:13:38;36.67;;;19.58;;
73456;SDS011;61691;53.072;6.582;2023-02-23T09:16:05;37.35;;;18.77;;
73456;SDS011;61691;53.072;6.582;2023-02-23T09:18:33;38.65;;;19.95;;
73456;SDS011;61691;53.072;6.582;2023-02-23T09:21:04;37.45;;;21.08;;
73456;SDS011;61691;53.072;6.582;2023-02-23T09:23:34;36.17;;;19.17;;
73456;SDS011;61691;53.072;6.582;2023-02-23T09:26:04;38.45;;;19.23;;
73456;SDS011;61691;53.072;6.582;2023-02-23T09:28:33;38.35;;;18.95;;
73456;SDS011;61691;53.072;6.582;2023-02-23T09:31:04;38.47;;;20.65;;
73456;SDS011;61691;53.072;6.582;2023-02-23T09:33:33;35.78;;;19.13;;
73456;SDS011;61691;53.072;6.582;2023-02-23T09:36:03;39.80;;;20.38;;
73456;SDS011;61691;53.072;6.582;2023-02-23T09:38:33;37.85;;;19.55;;
73456;SDS011;61691;53.072;6.582;2023-02-23T09:41:00;40.78;;;20.23;;
73456;SDS011;61691;53.072;6.582;2023-02-23T09:43:32;36.38;;;19.05;;
73456;SDS011;61691;53.072;6.582;2023-02-23T09:46:06;40.28;;;21.10;;
73456;SDS011;61691;53.072;6.582;2023-02-23T09:49:12;37.17;;;18.90;;
73456;SDS011;61691;53.072;6.582;2023-02-23T09:51:49;38.20;;;21.10;;
73456;SDS011;61691;53.072;6.582;2023-02-23T09:54:23;37.40;;;19.65;;
73456;SDS011;61691;53.072;6.582;2023-02-23T09:56:53;39.50;;;20.58;;
73456;SDS011;61691;53.072;6.582;2023-02-23T09:59:23;40.15;;;20.85;;
73456;SDS011;61691;53.072;6.582;2023-02-23T10:01:59;38.55;;;20.73;;
73456;SDS011;61691;53.072;6.582;2023-02-23T10:04:34;40.13;;;19.90;;
73456;SDS011;61691;53.072;6.582;2023-02-23T10:07:11;38.92;;;20.88;;
73456;SDS011;61691;53.072;6.582;2023-02-23T10:15:54;41.63;;;19.05;;
73456;SDS011;61691;53.072;6.582;2023-02-23T10:21:38;35.22;;;18.67;;
73456;SDS011;61691;53.072;6.582;2023-02-23T10:24:17;39.10;;;19.60;;
73456;SDS011;61691;53.072;6.582;2023-02-23T10:26:51;40.50;;;20.17;;
73456;SDS011;61691;53.072;6.582;2023-02-23T10:34:56;39.08;;;19.85;;
73456;SDS011;61691;53.072;6.582;2023-02-23T10:37:23;36.95;;;20.10;;
73456;SDS011;61691;53.072;6.582;2023-02-23T10:39:51;37.63;;;19.98;;
73456;SDS011;61691;53.072;6.582;2023-02-23T10:42:22;45.65;;;23.40;;
73456;SDS011;61691;53.072;6.582;2023-02-23T10:44:54;45.72;;;22.33;;
73456;SDS011;61691;53.072;6.582;2023-02-23T10:47:26;42.80;;;22.58;;
73456;SDS011;61691;53.072;6.582;2023-02-23T10:49:58;43.63;;;22.65;;
73456;SDS011;61691;53.072;6.582;2023-02-23T10:52:44;45.70;;;22.13;;
73456;SDS011;61691;53.072;6.582;2023-02-23T10:55:20;46.50;;;23.52;;
73456;SDS011;61691;53.072;6.582;2023-02-23T10:57:50;44.90;;;23.52;;
73456;SDS011;61691;53.072;6.582;2023-02-23T11:00:28;47.83;;;23.63;;
73456;SDS011;61691;53.072;6.582;2023-02-23T11:02:59;48.25;;;23.08;;
73456;SDS011;61691;53.072;6.582;2023-02-23T11:05:31;44.65;;;22.95;;
73456;SDS011;61691;53.072;6.582;2023-02-23T11:10:58;45.72;;;22.83;;
73456;SDS011;61691;53.072;6.582;2023-02-23T11:13:27;48.70;;;23.88;;
73456;SDS011;61691;53.072;6.582;2023-02-23T11:16:02;47.92;;;24.15;;
73456;SDS011;61691;53.072;6.582;2023-02-23T11:18:36;53.25;;;25.95;;
73456;SDS011;61691;53.072;6.582;2023-02-23T11:21:08;51.53;;;26.23;;
73456;SDS011;61691;53.072;6.582;2023-02-23T11:23:37;60.78;;;27.30;;
73456;SDS011;61691;53.072;6.582;2023-02-23T11:26:17;61.72;;;29.00;;
73456;SDS011;61691;53.072;6.582;2023-02-23T11:28:52;60.95;;;27.88;;
73456;SDS011;61691;53.072;6.582;2023-02-23T11:31:32;60.53;;;26.85;;
73456;SDS011;61691;53.072;6.582;2023-02-23T11:34:02;62.55;;;28.55;;
73456;SDS011;61691;53.072;6.582;2023-02-23T11:36:32;60.15;;;25.35;;
73456;SDS011;61691;53.072;6.582;2023-02-23T11:39:20;64.82;;;26.48;;
73456;SDS011;61691;53.072;6.582;2023-02-23T11:45:02;56.22;;;21.60;;
73456;SDS011;61691;53.072;6.582;2023-02-23T11:47:32;52.33;;;21.75;;
73456;SDS011;61691;53.072;6.582;2023-02-23T11:50:03;52.13;;;21.40;;
73456;SDS011;61691;53.072;6.582;2023-02-23T11:52:32;49.47;;;21.73;;
73456;SDS011;61691;53.072;6.582;2023-02-23T11:55:03;53.05;;;21.88;;
73456;SDS011;61691;53.072;6.582;2023-02-23T11:57:33;48.75;;;20.02;;
73456;SDS011;61691;53.072;6.582;2023-02-23T12:00:09;49.55;;;19.42;;
73456;SDS011;61691;53.072;6.582;2023-02-23T12:03:15;51.28;;;21.15;;
73456;SDS011;61691;53.072;6.582;2023-02-23T12:05:32;45.97;;;18.42;;
73456;SDS011;61691;53.072;6.582;2023-02-23T12:08:05;48.50;;;20.30;;
73456;SDS011;61691;53.072;6.582;2023-02-23T12:10:42;49.35;;;19.83;;
73456;SDS011;61691;53.072;6.582;2023-02-23T12:13:31;47.90;;;18.73;;
73456;SDS011;61691;53.072;6.582;2023-02-23T12:24:13;55.33;;;21.90;;
73456;SDS011;61691;53.072;6.582;2023-02-23T12:26:49;59.07;;;23.07;;
73456;SDS011;61691;53.072;6.582;2023-02-23T12:29:43;61.60;;;23.65;;
73456;SDS011;61691;53.072;6.582;2023-02-23T12:32:27;60.17;;;23.88;;
73456;SDS011;61691;53.072;6.582;2023-02-23T12:40:43;68.70;;;25.92;;
73456;SDS011;61691;53.072;6.582;2023-02-23T12:43:13;63.75;;;25.27;;
73456;SDS011;61691;53.072;6.582;2023-02-23T12:45:49;68.25;;;26.50;;
73456;SDS011;61691;53.072;6.582;2023-02-23T12:48:32;70.53;;;27.95;;
73456;SDS011;61691;53.072;6.582;2023-02-23T12:51:07;72.38;;;29.30;;
73456;SDS011;61691;53.072;6.582;2023-02-23T12:53:44;74.63;;;25.85;;
73456;SDS011;61691;53.072;6.582;2023-02-23T12:58:55;75.18;;;29.98;;
73456;SDS011;61691;53.072;6.582;2023-02-23T13:01:48;90.45;;;32.35;;
73456;SDS011;61691;53.072;6.582;2023-02-23T13:10:02;93.30;;;36.50;;
73456;SDS011;61691;53.072;6.582;2023-02-23T13:15:24;83.45;;;32.92;;
73456;SDS011;61691;53.072;6.582;2023-02-23T13:18:10;78.97;;;29.27;;
73456;SDS011;61691;53.072;6.582;2023-02-23T13:21:04;78.47;;;27.67;;
73456;SDS011;61691;53.072;6.582;2023-02-23T13:23:55;78.22;;;28.30;;
73456;SDS011;61691;53.072;6.582;2023-02-23T13:31:54;77.75;;;28.95;;
73456;SDS011;61691;53.072;6.582;2023-02-23T13:34:26;77.15;;;26.95;;
73456;SDS011;61691;53.072;6.582;2023-02-23T13:37:03;62.72;;;26.33;;
73456;SDS011;61691;53.072;6.582;2023-02-23T13:42:28;38.40;;;13.35;;
73456;SDS011;61691;53.072;6.582;2023-02-23T13:50:43;27.80;;;6.53;;
73456;SDS011;61691;53.072;6.582;2023-02-23T13:53:31;34.78;;;6.20;;
73456;SDS011;61691;53.072;6.582;2023-02-23T13:56:00;29.30;;;6.18;;
73456;SDS011;61691;53.072;6.582;2023-02-23T13:58:31;33.83;;;6.63;;
73456;SDS011;61691;53.072;6.582;2023-02-23T14:01:13;29.65;;;5.65;;
73456;SDS011;61691;53.072;6.582;2023-02-23T14:03:45;31.98;;;7.45;;
73456;SDS011;61691;53.072;6.582;2023-02-23T14:06:19;39.28;;;7.13;;
73456;SDS011;61691;53.072;6.582;2023-02-23T14:08:51;30.88;;;5.25;;
73456;SDS011;61691;53.072;6.582;2023-02-23T14:11:29;32.67;;;7.55;;
73456;SDS011;61691;53.072;6.582;2023-02-23T14:14:02;36.17;;;7.68;;
73456;SDS011;61691;53.072;6.582;2023-02-23T14:16:30;43.33;;;8.13;;
73456;SDS011;61691;53.072;6.582;2023-02-23T14:19:05;37.42;;;8.63;;
73456;SDS011;61691;53.072;6.582;2023-02-23T14:21:46;43.13;;;7.15;;
73456;SDS011;61691;53.072;6.582;2023-02-23T14:24:22;34.25;;;6.97;;
73456;SDS011;61691;53.072;6.582;2023-02-23T14:29:41;48.80;;;7.93;;
73456;SDS011;61691;53.072;6.582;2023-02-23T14:32:29;38.30;;;7.05;;
73456;SDS011;61691;53.072;6.582;2023-02-23T14:34:58;38.00;;;7.15;;
73456;SDS011;61691;53.072;6.582;2023-02-23T14:37:28;35.55;;;6.88;;
73456;SDS011;61691;53.072;6.582;2023-02-23T14:40:20;34.53;;;6.35;;
73456;SDS011;61691;53.072;6.582;2023-02-23T14:42:51;37.17;;;6.75;;
73456;SDS011;61691;53.072;6.582;2023-02-23T14:45:26;38.85;;;7.35;;
73456;SDS011;61691;53.072;6.582;2023-02-23T14:47:56;37.55;;;6.85;;
73456;SDS011;61691;53.072;6.582;2023-02-23T14:50:29;34.95;;;6.75;;
73456;SDS011;61691;53.072;6.582;2023-02-23T14:52:57;41.00;;;8.50;;
73456;SDS011;61691;53.072;6.582;2023-02-23T14:55:27;31.63;;;5.90;;
73456;SDS011;61691;53.072;6.582;2023-02-23T14:57:58;36.30;;;8.20;;
73456;SDS011;61691;53.072;6.582;2023-02-23T15:00:26;41.28;;;7.95;;
73456;SDS011;61691;53.072;6.582;2023-02-23T15:03:02;32.60;;;6.35;;
73456;SDS011;61691;53.072;6.582;2023-02-23T15:05:42;36.60;;;8.75;;
73456;SDS011;61691;53.072;6.582;2023-02-23T15:08:17;31.50;;;5.40;;
73456;SDS011;61691;53.072;6.582;2023-02-23T15:10:49;35.20;;;6.75;;
73456;SDS011;61691;53.072;6.582;2023-02-23T15:13:32;33.30;;;4.82;;
73456;SDS011;61691;53.072;6.582;2023-02-23T15:16:00;35.65;;;6.20;;
73456;SDS011;61691;53.072;6.582;2023-02-23T15:18:35;27.98;;;5.82;;
73456;SDS011;61691;53.072;6.582;2023-02-23T15:21:12;41.22;;;7.25;;
73456;SDS011;61691;53.072;6.582;2023-02-23T15:23:43;37.88;;;6.22;;
73456;SDS011;61691;53.072;6.582;2023-02-23T15:26:31;32.03;;;7.00;;
73456;SDS011;61691;53.072;6.582;2023-02-23T15:31:36;36.22;;;6.03;;
73456;SDS011;61691;53.072;6.582;2023-02-23T15:34:08;32.55;;;5.28;;
73456;SDS011;61691;53.072;6.582;2023-02-23T15:36:36;32.65;;;5.90;;
73456;SDS011;61691;53.072;6.582;2023-02-23T15:39:06;32.42;;;5.97;;
73456;SDS011;61691;53.072;6.582;2023-02-23T15:41:40;35.88;;;5.93;;
73456;SDS011;61691;53.072;6.582;2023-02-23T15:44:13;30.63;;;7.55;;
73456;SDS011;61691;53.072;6.582;2023-02-23T15:46:41;32.78;;;5.50;;
73456;SDS011;61691;53.072;6.582;2023-02-23T15:49:12;27.77;;;5.77;;
73456;SDS011;61691;53.072;6.582;2023-02-23T15:51:46;32.25;;;5.80;;
73456;SDS011;61691;53.072;6.582;2023-02-23T15:54:18;31.88;;;6.95;;
73456;SDS011;61691;53.072;6.582;2023-02-23T15:56:47;35.75;;;7.05;;
73456;SDS011;61691;53.072;6.582;2023-02-23T15:59:20;35.70;;;5.60;;
73456;SDS011;61691;53.072;6.582;2023-02-23T16:01:51;31.60;;;5.30;;
73456;SDS011;61691;53.072;6.582;2023-02-23T16:04:25;29.02;;;4.95;;
73456;SDS011;61691;53.072;6.582;2023-02-23T16:07:06;29.55;;;4.78;;
73456;SDS011;61691;53.072;6.582;2023-02-23T16:09:48;47.75;;;12.65;;
73456;SDS011;61691;53.072;6.582;2023-02-23T16:14:58;27.88;;;4.85;;
73456;SDS011;61691;53.072;6.582;2023-02-23T16:19:54;30.63;;;5.57;;
73456;SDS011;61691;53.072;6.582;2023-02-23T16:22:36;30.30;;;5.15;;
73456;SDS011;61691;53.072;6.582;2023-02-23T16:25:06;25.23;;;4.70;;
73456;SDS011;61691;53.072;6.582;2023-02-23T16:27:37;28.05;;;4.68;;
73456;SDS011;61691;53.072;6.582;2023-02-23T16:30:15;29.15;;;5.28;;
73456;SDS011;61691;53.072;6.582;2023-02-23T16:32:45;26.48;;;4.53;;
73456;SDS011;61691;53.072;6.582;2023-02-23T16:38:03;28.95;;;4.70;;
73456;SDS011;61691;53.072;6.582;2023-02-23T16:40:41;23.23;;;4.18;;
73456;SDS011;61691;53.072;6.582;2023-02-23T16:43:08;26.88;;;4.93;;
73456;SDS011;61691;53.072;6.582;2023-02-23T16:45:36;28.63;;;5.40;;
73456;SDS011;61691;53.072;6.582;2023-02-23T16:48:04;28.42;;;4.70;;
73456;SDS011;61691;53.072;6.582;2023-02-23T16:50:36;27.63;;;5.18;;